Time;durP1;ratioP1;P1;durP2;ratioP2;P2;SDS_P1;SDS_P2;PMS_P1;PMS_P2;Temp;Humidity;BMP_temperature;BMP_pressure;BME280_temperature;BME280_humidity;BME280_pressure;Samples;Min_cycle;Max_cycle;Signal;HPM_P1;HPM_P2
2023/08/04 00:02:06;;;;;;;6.60;0.60;;;;;;;18.59;59.18;99703.20;111334;1208;99025;-61
2023/08/04 00:04:31;;;;;;;3.30;0.70;;;;;;;18.55;59.31;99709.88;111192;1208;138853;-61
2023/08/04 00:06:56;;;;;;;3.30;0.60;;;;;;;18.52;59.48;99714.38;111278;1206;98989;-62
2023/08/04 00:09:22;;;;;;;1.10;0.40;;;;;;;18.47;59.53;99718.89;111187;1203;139434;-61
2023/08/04 00:11:47;;;;;;;2.20;0.40;;;;;;;18.45;59.70;99715.91;111302;1208;98934;-61
2023/08/04 00:14:13;;;;;;;1.50;0.50;;;;;;;18.42;59.67;99717.59;111282;1208;98983;-61
2023/08/04 00:16:39;;;;;;;1.10;0.70;;;;;;;18.39;59.74;99718.75;111153;1209;138629;-64
2023/08/04 00:19:04;;;;;;;1.60;0.40;;;;;;;18.38;59.95;99718.35;111220;1208;99012;-64
2023/08/04 00:21:29;;;;;;;1.40;0.50;;;;;;;18.37;60.15;99717.50;111232;1208;139920;-61
2023/08/04 00:23:58;;;;;;;1.90;0.70;;;;;;;18.35;60.32;99715.72;111274;1208;99108;-62
2023/08/04 00:26:23;;;;;;;2.40;0.60;;;;;;;18.32;60.41;99711.79;111371;1208;99047;-64
2023/08/04 00:28:48;;;;;;;2.00;0.40;;;;;;;18.31;60.47;99707.97;111120;1209;138553;-61
2023/08/04 00:31:14;;;;;;;6.20;0.80;;;;;;;18.28;60.62;99711.79;111365;1208;98922;-61
2023/08/04 00:33:40;;;;;;;1.20;0.70;;;;;;;18.27;60.77;99715.95;111225;1203;138673;-61
2023/08/04 00:36:05;;;;;;;7.50;0.70;;;;;;;18.25;60.80;99717.52;111269;1208;98916;-61
2023/08/04 00:38:30;;;;;;;0.60;0.60;;;;;;;18.23;60.79;99724.19;111261;1206;99415;-61
2023/08/04 00:40:55;;;;;;;6.30;0.50;;;;;;;18.22;60.88;99720.48;111145;1207;139077;-61
2023/08/04 00:43:21;;;;;;;1.50;0.40;;;;;;;18.21;61.11;99721.02;111336;1203;98952;-62
2023/08/04 00:45:46;;;;;;;0.60;0.30;;;;;;;18.19;61.13;99720.81;111182;1203;140325;-61
2023/08/04 00:48:11;;;;;;;0.70;0.40;;;;;;;18.18;61.18;99722.70;111357;1203;98997;-61
2023/08/04 00:50:37;;;;;;;0.70;0.30;;;;;;;18.18;61.41;99724.52;111303;1203;99025;-61
2023/08/04 00:53:02;;;;;;;1.80;0.30;;;;;;;18.17;61.28;99730.02;111212;1209;138283;-61
2023/08/04 00:55:28;;;;;;;2.80;0.50;;;;;;;18.16;61.55;99730.13;111409;1203;100487;-61
2023/08/04 00:57:55;;;;;;;2.50;1.10;;;;;;;18.15;61.62;99737.27;111204;1209;138313;-61
2023/08/04 01:00:21;;;;;;;7.10;0.60;;;;;;;18.14;61.70;99732.27;111282;1208;99015;-61
2023/08/04 01:02:46;;;;;;;1.20;0.50;;;;;;;18.14;61.83;99742.17;111221;1203;140107;-62
2023/08/04 01:05:11;;;;;;;1.90;0.70;;;;;;;18.13;61.76;99739.41;111241;1208;99034;-61
2023/08/04 01:07:47;;;;;;;0.60;0.40;;;;;;;18.11;61.92;99741.57;111279;1206;98918;-61
2023/08/04 01:10:52;;;;;;;2.40;0.40;;;;;;;18.09;62.08;99746.09;111112;1203;138457;-61
2023/08/04 01:13:21;;;;;;;0.30;0.30;;;;;;;18.06;62.11;99753.24;111254;1206;99409;-61
2023/08/04 01:15:49;;;;;;;1.50;0.40;;;;;;;18.03;62.19;99754.20;111150;1208;139626;-62
2023/08/04 01:18:20;;;;;;;2.30;0.50;;;;;;;18.01;62.26;99755.10;111242;1205;98918;-61
2023/08/04 01:20:45;;;;;;;1.20;0.30;;;;;;;17.99;62.36;99754.44;111176;1208;139026;-62
2023/08/04 01:23:10;;;;;;;1.60;0.60;;;;;;;17.98;62.48;99759.98;111303;1206;100182;-62
2023/08/04 01:25:36;;;;;;;0.90;0.20;;;;;;;17.95;62.47;99755.70;111299;1204;99502;-61
2023/08/04 01:28:05;;;;;;;3.10;0.50;;;;;;;17.92;62.69;99750.00;111092;1206;139664;-61
2023/08/04 01:30:32;;;;;;;2.00;0.50;;;;;;;17.90;62.81;99742.80;111257;1206;104016;-62
2023/08/04 01:32:58;;;;;;;1.90;0.60;;;;;;;17.88;62.76;99748.41;111136;1205;140116;-62
2023/08/04 01:35:24;;;;;;;0.90;0.40;;;;;;;17.85;62.97;99750.97;111330;1209;98921;-62
2023/08/04 01:37:49;;;;;;;2.30;0.50;;;;;;;17.83;63.01;99756.92;111294;1208;98998;-62
2023/08/04 01:40:14;;;;;;;3.40;0.30;;;;;;;17.79;63.09;99756.70;111102;1208;138543;-62
2023/08/04 01:42:40;;;;;;;1.40;0.50;;;;;;;17.78;63.24;99759.91;111331;1207;97829;-62
2023/08/04 01:45:06;;;;;;;2.50;0.50;;;;;;;17.75;63.23;99761.61;111124;1203;139037;-62
2023/08/04 01:47:32;;;;;;;0.90;0.30;;;;;;;17.71;63.43;99757.56;111285;1208;99048;-62
2023/08/04 01:49:57;;;;;;;0.50;0.30;;;;;;;17.69;63.44;99761.20;111311;1206;99043;-62
2023/08/04 01:52:23;;;;;;;1.00;0.30;;;;;;;17.67;63.49;99758.15;111170;1203;139007;-62
2023/08/04 01:54:48;;;;;;;2.40;0.50;;;;;;;17.63;63.65;99763.35;111238;1208;99053;-62
2023/08/04 01:57:14;;;;;;;2.20;0.40;;;;;;;17.59;63.79;99766.17;111210;1209;138757;-62
2023/08/04 01:59:39;;;;;;;1.50;0.40;;;;;;;17.56;63.79;99768.27;111309;1208;98999;-62
2023/08/04 02:02:04;;;;;;;4.30;0.60;;;;;;;17.53;63.95;99775.21;111320;1207;98929;-62
2023/08/04 02:04:29;;;;;;;0.40;0.40;;;;;;;17.51;63.93;99773.96;111164;1207;138866;-63
2023/08/04 02:06:55;;;;;;;3.40;0.30;;;;;;;17.48;64.05;99774.77;111255;1218;99034;-62
2023/08/04 02:09:22;;;;;;;3.90;0.60;;;;;;;17.45;64.17;99773.90;111194;1207;140337;-62
2023/08/04 02:11:48;;;;;;;1.40;0.40;;;;;;;17.43;64.17;99776.48;111288;1216;100616;-62
2023/08/04 02:14:14;;;;;;;1.00;0.50;;;;;;;17.40;64.28;99775.77;111316;1205;98945;-62
2023/08/04 02:16:39;;;;;;;0.90;0.50;;;;;;;17.39;64.29;99777.36;111247;1206;140897;-62
2023/08/04 02:19:09;;;;;;;3.10;0.90;;;;;;;17.36;64.28;99780.82;111176;1203;99015;-63
2023/08/04 02:21:35;;;;;;;0.80;0.40;;;;;;;17.33;64.53;99785.21;111066;1203;139070;-62
2023/08/04 02:24:01;;;;;;;2.70;0.60;;;;;;;17.30;64.58;99781.67;111225;1208;99154;-63
2023/08/04 02:26:26;;;;;;;1.10;0.50;;;;;;;17.28;64.57;99789.89;111347;1203;99427;-62
2023/08/04 02:28:53;;;;;;;2.00;0.50;;;;;;;17.25;64.70;99790.08;111077;1209;138588;-62
2023/08/04 02:31:19;;;;;;;2.60;0.50;;;;;;;17.24;64.75;99798.36;111233;1208;98987;-62
2023/08/04 02:33:44;;;;;;;0.60;0.50;;;;;;;17.21;64.80;99793.88;111212;1203;139896;-62
2023/08/04 02:36:11;;;;;;;3.70;0.60;;;;;;;17.18;64.79;99792.27;111358;1203;98989;-62
2023/08/04 02:38:36;;;;;;;1.50;0.30;;;;;;;17.17;64.85;99790.05;111317;1209;99926;-62
2023/08/04 02:41:04;;;;;;;0.80;0.40;;;;;;;17.14;64.99;99795.11;111118;1206;138421;-62
2023/08/04 02:43:30;;;;;;;1.90;0.40;;;;;;;17.11;65.15;99803.50;111270;1208;98931;-62
2023/08/04 02:45:57;;;;;;;0.40;0.40;;;;;;;17.09;65.24;99802.45;111301;1208;138463;-63
2023/08/04 02:48:22;;;;;;;1.10;0.50;;;;;;;17.06;65.38;99806.64;111267;1206;99999;-62
2023/08/04 02:50:58;;;;;;;1.70;0.50;;;;;;;17.05;65.32;99811.95;111165;1208;139564;-62
2023/08/04 02:53:23;;;;;;;0.90;0.70;;;;;;;17.01;65.51;99814.29;111256;1220;98983;-62
2023/08/04 02:55:48;;;;;;;4.50;0.60;;;;;;;17.00;65.52;99825.07;111261;1208;99162;-62
2023/08/04 02:58:14;;;;;;;1.60;0.60;;;;;;;16.97;65.73;99835.90;111169;1207;139427;-62
2023/08/04 03:00:39;;;;;;;2.00;0.60;;;;;;;16.94;65.83;99831.88;111265;1208;98920;-62
2023/08/04 03:03:04;;;;;;;1.90;0.60;;;;;;;16.92;65.80;99826.61;111169;1208;140104;-62
2023/08/04 03:05:34;;;;;;;3.70;0.60;;;;;;;16.90;65.92;99825.85;111261;1203;98938;-63
2023/08/04 03:07:59;;;;;;;2.50;0.30;;;;;;;16.87;66.12;99830.79;111273;1206;99558;-62
2023/08/04 03:10:25;;;;;;;2.30;0.40;;;;;;;16.85;66.29;99833.10;111127;1206;138528;-63
2023/08/04 03:12:50;;;;;;;3.10;0.80;;;;;;;16.85;66.39;99840.56;111306;1206;98977;-62
2023/08/04 03:15:15;;;;;;;3.00;0.50;;;;;;;16.82;66.36;99844.17;111108;1209;139686;-62
2023/08/04 03:17:40;;;;;;;3.80;0.60;;;;;;;16.80;66.54;99844.38;111339;1203;99137;-62
2023/08/04 03:20:06;;;;;;;4.00;0.80;;;;;;;16.78;66.73;99847.29;111218;1208;98775;-62
2023/08/04 03:22:31;;;;;;;2.00;0.40;;;;;;;16.75;66.85;99846.80;111159;1209;139143;-62
2023/08/04 03:24:57;;;;;;;3.00;0.40;;;;;;;16.73;66.95;99851.63;111270;1206;99066;-62
2023/08/04 03:27:23;;;;;;;2.80;0.60;;;;;;;16.72;67.06;99854.97;111155;1207;138542;-62
2023/08/04 03:29:48;;;;;;;2.60;0.60;;;;;;;16.72;67.27;99856.44;111251;1208;99578;-62
2023/08/04 03:32:14;;;;;;;1.80;0.70;;;;;;;16.72;67.23;99859.69;111315;1208;98992;-62
2023/08/04 03:34:39;;;;;;;0.90;0.60;;;;;;;16.71;67.44;99868.63;111119;1203;139744;-62
2023/08/04 03:37:04;;;;;;;0.30;0.30;;;;;;;16.70;67.48;99878.91;111271;1206;98909;-62
2023/08/04 03:39:29;;;;;;;1.70;0.40;;;;;;;16.71;67.70;99879.73;111176;1208;138861;-62
2023/08/04 03:41:55;;;;;;;3.20;0.60;;;;;;;16.71;67.87;99881.05;111316;1209;98919;-62
2023/08/04 03:44:20;;;;;;;1.90;0.80;;;;;;;16.71;68.03;99878.33;111232;1206;98939;-63
2023/08/04 03:46:45;;;;;;;1.30;0.80;;;;;;;16.72;68.09;99877.67;111156;1208;138801;-62
2023/08/04 03:49:11;;;;;;;1.10;0.50;;;;;;;16.73;68.36;99886.06;111322;1208;98931;-62
2023/08/04 03:51:36;;;;;;;0.50;0.30;;;;;;;16.74;68.46;99878.29;111158;1209;139207;-63
2023/08/04 03:54:01;;;;;;;2.30;0.60;;;;;;;16.75;68.52;99879.47;111295;1208;98964;-63
2023/08/04 03:56:26;;;;;;;1.50;0.50;;;;;;;16.76;68.63;99887.52;111287;1203;98944;-62
2023/08/04 03:58:51;;;;;;;2.00;0.50;;;;;;;16.75;68.73;99887.14;111206;1207;139733;-63
2023/08/04 04:01:17;;;;;;;1.30;0.80;;;;;;;16.75;68.68;99878.56;111219;1209;98921;-62
2023/08/04 04:03:42;;;;;;;1.40;0.40;;;;;;;16.75;68.75;99880.52;111172;1209;139164;-62
2023/08/04 04:06:07;;;;;;;2.20;0.50;;;;;;;16.76;68.80;99879.54;111306;1208;99587;-62
2023/08/04 04:08:32;;;;;;;2.40;0.60;;;;;;;16.78;68.89;99872.85;111267;1208;99000;-63
2023/08/04 04:10:58;;;;;;;4.50;0.90;;;;;;;16.80;68.90;99872.91;111221;1208;138576;-63
2023/08/04 04:13:23;;;;;;;0.70;0.50;;;;;;;16.80;68.90;99879.17;111297;1208;98959;-62
2023/08/04 04:15:48;;;;;;;4.60;1.30;;;;;;;16.81;68.92;99877.48;111266;1208;139901;-62
2023/08/04 04:18:13;;;;;;;3.50;0.90;;;;;;;16.82;68.96;99876.85;111255;1208;99024;-62
2023/08/04 04:20:39;;;;;;;0.60;0.50;;;;;;;16.85;69.08;99883.07;111392;1206;99054;-62
2023/08/04 04:23:04;;;;;;;4.10;0.70;;;;;;;16.87;69.06;99891.84;111142;1222;139751;-62
2023/08/04 04:25:29;;;;;;;3.00;0.70;;;;;;;16.88;69.14;99896.09;111309;1203;98966;-62
2023/08/04 04:27:54;;;;;;;2.60;0.80;;;;;;;16.89;69.15;99892.15;111184;1203;140677;-62
2023/08/04 04:30:20;;;;;;;2.60;0.70;;;;;;;16.91;69.20;99895.13;111270;1208;98957;-62
2023/08/04 04:32:45;;;;;;;1.40;0.90;;;;;;;16.92;69.31;99894.69;111179;1208;141494;-62
2023/08/04 04:35:10;;;;;;;0.70;0.70;;;;;;;16.94;69.50;99896.30;111260;1208;99021;-62
2023/08/04 04:37:35;;;;;;;1.60;0.50;;;;;;;16.97;69.50;99903.83;111353;1203;99050;-62
2023/08/04 04:40:01;;;;;;;3.30;0.70;;;;;;;16.98;69.57;99904.98;111040;1205;139144;-62
2023/08/04 04:42:26;;;;;;;2.50;1.30;;;;;;;17.00;69.69;99900.28;111219;1208;98965;-62
2023/08/04 04:44:51;;;;;;;1.00;0.70;;;;;;;17.02;69.66;99900.11;111153;1205;140841;-62
2023/08/04 04:47:16;;;;;;;2.30;0.60;;;;;;;17.05;69.62;99901.14;111202;1205;98998;-62
2023/08/04 04:49:41;;;;;;;2.30;0.70;;;;;;;17.08;69.80;99895.27;111240;1205;99149;-62
2023/08/04 04:52:14;;;;;;;2.30;0.70;;;;;;;17.11;69.84;99889.65;111033;1208;139582;-63
2023/08/04 04:54:39;;;;;;;3.30;0.50;;;;;;;17.13;69.88;99888.77;111176;1208;99035;-62
2023/08/04 04:57:05;;;;;;;2.30;0.80;;;;;;;17.16;69.93;99897.15;111019;1209;142991;-62
2023/08/04 04:59:30;;;;;;;4.20;1.50;;;;;;;17.19;70.03;99903.20;111442;1203;98927;-62
2023/08/04 05:01:55;;;;;;;1.30;0.50;;;;;;;17.24;70.10;99910.45;111171;1208;98919;-62
2023/08/04 05:04:21;;;;;;;2.70;0.50;;;;;;;17.29;70.06;99918.52;111214;1204;140104;-63
2023/08/04 05:06:46;;;;;;;1.20;0.50;;;;;;;17.32;70.21;99928.36;111227;1206;99209;-62
2023/08/04 05:09:11;;;;;;;6.30;0.80;;;;;;;17.36;70.35;99937.27;111082;1208;140487;-62
2023/08/04 05:11:37;;;;;;;1.10;0.70;;;;;;;17.39;70.37;99940.23;111342;1209;98945;-62
2023/08/04 05:14:02;;;;;;;1.80;0.90;;;;;;;17.43;70.40;99943.90;111253;1209;99022;-63
2023/08/04 05:16:27;;;;;;;4.10;1.00;;;;;;;17.48;70.49;99949.99;111182;1208;140457;-62
2023/08/04 05:18:53;;;;;;;0.90;0.70;;;;;;;17.52;70.61;99948.73;111255;1203;99300;-63
2023/08/04 05:21:18;;;;;;;2.90;1.20;;;;;;;17.56;70.53;99941.33;111102;1209;140070;-62
2023/08/04 05:23:43;;;;;;;0.90;0.70;;;;;;;17.61;70.60;99942.73;111343;1209;99052;-62
2023/08/04 05:26:08;;;;;;;0.80;0.50;;;;;;;17.67;70.83;99942.80;111219;1206;98923;-62
2023/08/04 05:28:34;;;;;;;1.20;0.70;;;;;;;17.74;70.76;99950.29;111214;1203;140813;-62
2023/08/04 05:31:03;;;;;;;3.30;0.80;;;;;;;17.85;70.87;99954.09;111231;1206;98893;-63
2023/08/04 05:33:30;;;;;;;5.00;0.70;;;;;;;17.93;70.95;99955.39;111196;1207;138790;-63
2023/08/04 05:35:56;;;;;;;2.20;0.80;;;;;;;18.02;70.92;99959.54;111226;1222;98659;-63
2023/08/04 05:38:22;;;;;;;1.70;0.60;;;;;;;18.09;70.87;99957.98;111259;1208;99014;-62
2023/08/04 05:40:48;;;;;;;1.80;0.90;;;;;;;18.17;70.74;99952.83;111237;1209;139575;-62
2023/08/04 05:43:14;;;;;;;3.40;0.80;;;;;;;18.24;70.60;99957.05;111332;1208;99066;-62
2023/08/04 05:45:42;;;;;;;1.10;0.50;;;;;;;18.30;70.69;99960.13;111171;1203;139005;-62
2023/08/04 05:48:07;;;;;;;3.90;1.00;;;;;;;18.37;70.72;99960.83;111304;1204;98845;-63
2023/08/04 05:50:33;;;;;;;1.40;0.90;;;;;;;18.41;70.59;99960.25;111328;1208;98951;-63
2023/08/04 05:52:59;;;;;;;3.50;0.70;;;;;;;18.43;70.60;99962.44;111122;1203;139615;-62
2023/08/04 05:55:24;;;;;;;2.60;0.70;;;;;;;18.46;70.71;99964.54;111354;1203;100423;-62
2023/08/04 05:57:50;;;;;;;7.30;0.70;;;;;;;18.47;70.55;99969.46;111180;1209;138769;-63
2023/08/04 06:00:16;;;;;;;1.90;0.80;;;;;;;18.50;70.56;99965.96;111201;1206;98951;-62
2023/08/04 06:02:43;;;;;;;1.50;0.60;;;;;;;18.55;70.44;99957.83;111279;1206;99504;-63
2023/08/04 06:05:09;;;;;;;5.50;1.20;;;;;;;18.56;70.31;99955.70;111236;1203;99031;-63
2023/08/04 06:07:34;;;;;;;5.10;0.90;;;;;;;18.56;70.30;99950.84;111397;1203;98944;-63
2023/08/04 06:10:00;;;;;;;7.10;1.10;;;;;;;18.59;70.27;99945.11;111091;1203;138747;-62
2023/08/04 06:12:25;;;;;;;3.80;0.80;;;;;;;18.63;70.35;99944.66;111251;1206;99025;-63
2023/08/04 06:14:50;;;;;;;2.90;1.30;;;;;;;18.67;70.31;99946.23;111198;1203;139380;-62
2023/08/04 06:17:15;;;;;;;3.90;1.10;;;;;;;18.74;70.28;99954.50;111229;1208;100227;-62
2023/08/04 06:19:43;;;;;;;6.80;1.00;;;;;;;18.82;70.17;99959.63;111360;1209;98918;-63
2023/08/04 06:22:09;;;;;;;3.50;0.90;;;;;;;18.88;70.12;99953.83;111127;1209;139951;-63
2023/08/04 06:24:34;;;;;;;1.90;0.90;;;;;;;18.90;70.07;99955.43;111284;1203;98985;-63
2023/08/04 06:26:59;;;;;;;2.90;0.70;;;;;;;18.91;70.20;99956.41;111178;1206;138549;-63
2023/08/04 06:29:25;;;;;;;3.30;0.90;;;;;;;18.89;70.04;99963.86;111259;1208;98953;-62
2023/08/04 06:31:50;;;;;;;3.70;0.80;;;;;;;18.86;70.15;99972.65;111294;1206;98971;-62
2023/08/04 06:34:15;;;;;;;4.50;1.20;;;;;;;18.88;70.25;99978.27;111130;1203;139432;-62
2023/08/04 06:36:40;;;;;;;2.20;0.80;;;;;;;18.97;70.32;99982.34;111254;1209;99031;-63
2023/08/04 06:39:05;;;;;;;3.80;1.00;;;;;;;19.06;70.16;99982.84;111156;1222;138587;-62
2023/08/04 06:41:31;;;;;;;8.30;1.10;;;;;;;19.12;70.06;99982.92;111269;1209;98973;-63
2023/08/04 06:43:56;;;;;;;22.50;2.70;;;;;;;19.19;70.20;99985.09;111272;1203;98951;-63
2023/08/04 06:46:21;;;;;;;5.30;1.50;;;;;;;19.24;70.06;99981.90;111138;1209;140285;-63
2023/08/04 06:48:46;;;;;;;2.30;0.90;;;;;;;19.25;69.99;99985.60;111320;1206;98935;-62
2023/08/04 06:51:12;;;;;;;5.70;0.90;;;;;;;19.30;69.96;100003.98;111122;1208;138796;-62
2023/08/04 06:53:37;;;;;;;3.00;1.20;;;;;;;19.35;69.94;100004.48;111268;1209;98965;-62
2023/08/04 06:56:02;;;;;;;3.00;1.20;;;;;;;19.32;69.81;100008.59;111272;1209;99036;-63
2023/08/04 06:58:28;;;;;;;2.30;1.30;;;;;;;19.25;69.67;100012.11;111160;1209;138744;-62
2023/08/04 07:00:53;;;;;;;2.50;0.90;;;;;;;19.24;69.65;100017.28;111334;1206;98938;-62
2023/08/04 07:03:18;;;;;;;5.10;1.30;;;;;;;19.29;69.67;100012.10;111134;1203;139908;-62
2023/08/04 07:05:44;;;;;;;3.70;1.20;;;;;;;19.35;69.59;100019.52;111203;1206;99112;-63
2023/08/04 07:08:09;;;;;;;3.40;1.20;;;;;;;19.41;69.62;100027.42;111323;1206;98637;-63
2023/08/04 07:10:35;;;;;;;4.20;0.90;;;;;;;19.46;69.52;100027.92;111130;1208;139038;-63
2023/08/04 07:13:01;;;;;;;4.20;1.10;;;;;;;19.51;69.56;100026.42;111292;1208;98957;-63
2023/08/04 07:15:26;;;;;;;1.50;0.80;;;;;;;19.59;69.51;100033.14;111232;1209;139185;-63
2023/08/04 07:17:51;;;;;;;3.20;1.10;;;;;;;19.72;69.53;100041.68;111304;1208;99080;-63
2023/08/04 07:20:17;;;;;;;3.50;0.70;;;;;;;19.76;69.26;100047.10;111287;1203;98988;-63
2023/08/04 07:22:42;;;;;;;1.40;1.10;;;;;;;19.77;69.04;100054.46;111166;1209;138706;-63
2023/08/04 07:25:07;;;;;;;4.90;0.90;;;;;;;19.79;69.02;100058.88;111323;1203;97605;-63
2023/08/04 07:27:33;;;;;;;2.90;0.70;;;;;;;19.84;69.10;100056.27;111171;1222;139907;-63
2023/08/04 07:29:58;;;;;;;2.20;1.20;;;;;;;19.92;69.08;100049.85;111203;1206;98926;-62
2023/08/04 07:32:23;;;;;;;3.60;0.90;;;;;;;20.07;69.18;100049.02;111295;1209;99028;-63
2023/08/04 07:34:49;;;;;;;3.70;0.90;;;;;;;20.17;68.73;100055.01;111149;1209;139411;-62
2023/08/04 07:37:14;;;;;;;4.00;1.10;;;;;;;20.17;68.37;100052.02;111274;1206;100435;-63
2023/08/04 07:39:39;;;;;;;6.40;0.90;;;;;;;20.19;68.52;100058.05;111147;1208;139457;-65
2023/08/04 07:42:04;;;;;;;3.30;1.40;;;;;;;20.29;68.22;100059.67;111338;1208;98932;-62
2023/08/04 07:44:30;;;;;;;1.70;0.90;;;;;;;20.33;67.81;100057.83;111298;1204;98908;-62
2023/08/04 07:46:55;;;;;;;6.80;1.10;;;;;;;20.29;67.22;100060.20;111103;1209;139239;-63
2023/08/04 07:49:20;;;;;;;4.80;1.30;;;;;;;20.26;67.55;100060.25;111299;1209;98997;-61
2023/08/04 07:51:45;;;;;;;17.20;1.10;;;;;;;20.25;67.09;100068.20;111183;1203;139679;-64
2023/08/04 07:54:11;;;;;;;6.70;1.10;;;;;;;20.25;67.15;100064.04;111315;1208;99072;-62
2023/08/04 07:56:36;;;;;;;7.80;1.20;;;;;;;20.30;67.15;100064.95;111286;1203;98928;-61
2023/08/04 07:59:02;;;;;;;0.80;0.70;;;;;;;20.34;67.09;100065.02;111181;1215;140981;-62
2023/08/04 08:01:27;;;;;;;0.80;0.80;;;;;;;20.40;67.02;100068.42;111316;1207;104428;-62
2023/08/04 08:03:52;;;;;;;1.30;0.90;;;;;;;20.45;66.97;100069.84;111162;1209;139208;-62
2023/08/04 08:06:18;;;;;;;1.50;0.90;;;;;;;20.51;66.76;100071.98;111304;1209;100429;-62
2023/08/04 08:08:46;;;;;;;2.20;1.10;;;;;;;20.54;66.60;100079.89;111307;1209;98989;-62
2023/08/04 08:11:12;;;;;;;1.30;0.80;;;;;;;20.49;66.29;100078.73;111309;1215;98682;-62
2023/08/04 08:13:38;;;;;;;1.80;0.60;;;;;;;20.46;66.41;100079.84;111248;1206;99005;-62
2023/08/04 08:16:10;;;;;;;12.00;1.60;;;;;;;20.46;66.53;100080.95;111214;1208;139048;-62
2023/08/04 08:18:36;;;;;;;4.20;1.30;;;;;;;20.48;66.33;100080.47;111286;1219;100798;-62
2023/08/04 08:21:04;;;;;;;1.00;0.70;;;;;;;20.62;66.40;100084.19;111090;1209;143311;-62
2023/08/04 08:23:30;;;;;;;4.60;1.10;;;;;;;20.72;66.27;100086.67;111244;1208;98925;-62
2023/08/04 08:25:55;;;;;;;3.50;1.00;;;;;;;20.79;66.26;100090.19;111250;1209;99008;-62
2023/08/04 08:28:20;;;;;;;2.90;1.00;;;;;;;20.80;65.88;100092.31;111198;1208;138764;-62
2023/08/04 08:30:45;;;;;;;3.00;0.90;;;;;;;20.77;65.53;100093.87;111277;1207;98957;-63
2023/08/04 08:33:10;;;;;;;1.90;1.20;;;;;;;20.80;65.78;100093.36;111205;1209;139525;-62
2023/08/04 08:35:36;;;;;;;1.50;0.90;;;;;;;20.88;65.56;100091.81;111288;1209;98957;-62
2023/08/04 08:38:01;;;;;;;4.60;1.50;;;;;;;20.94;65.56;100100.66;111330;1205;98957;-62
2023/08/04 08:40:27;;;;;;;2.50;1.20;;;;;;;20.97;65.37;100104.05;111185;1203;138834;-62
2023/08/04 08:42:54;;;;;;;5.50;1.20;;;;;;;20.99;65.39;100104.07;111290;1209;99012;-63
2023/08/04 08:45:22;;;;;;;9.70;1.20;;;;;;;20.98;65.23;100103.45;111319;1206;139679;-62
2023/08/04 08:47:48;;;;;;;6.70;1.00;;;;;;;21.06;65.23;100102.08;111284;1208;104646;-62
2023/08/04 08:50:14;;;;;;;13.60;1.30;;;;;;;21.22;64.90;100106.79;111233;1206;98925;-62
2023/08/04 08:52:42;;;;;;;3.40;0.80;;;;;;;21.29;64.74;100110.57;111211;1209;139640;-63
2023/08/04 08:55:08;;;;;;;3.00;1.70;;;;;;;21.31;64.43;100111.91;111254;1208;99063;-63
2023/08/04 08:57:34;;;;;;;5.00;1.50;;;;;;;21.27;64.06;100119.88;111192;1203;138148;-63
2023/08/04 09:00:02;;;;;;;1.80;0.90;;;;;;;21.24;63.91;100121.45;111335;1208;100141;-62
2023/08/04 09:02:27;;;;;;;2.30;1.00;;;;;;;21.26;63.83;100121.86;111360;1209;99463;-62
2023/08/04 09:04:54;;;;;;;1.70;1.00;;;;;;;21.31;63.72;100116.73;111247;1208;138018;-62
2023/08/04 09:07:21;;;;;;;2.90;1.40;;;;;;;21.40;63.63;100110.27;111237;1207;101020;-62
2023/08/04 09:09:47;;;;;;;5.00;1.60;;;;;;;21.50;63.39;100113.91;111214;1203;137836;-62
2023/08/04 09:12:12;;;;;;;2.60;1.30;;;;;;;21.57;63.13;100119.48;111224;1209;99798;-62
2023/08/04 09:14:53;;;;;;;2.60;1.10;;;;;;;21.57;63.13;100117.70;111336;1206;99021;-61
2023/08/04 09:17:30;;;;;;;2.50;1.20;;;;;;;21.53;62.86;100126.86;111216;1209;104305;-64
2023/08/04 09:19:56;;;;;;;2.90;1.10;;;;;;;21.48;62.55;100122.58;111234;1206;99042;-62
2023/08/04 09:22:21;;;;;;;3.40;1.40;;;;;;;21.54;62.70;100130.76;111145;1203;138155;-62
2023/08/04 09:24:58;;;;;;;4.30;1.10;;;;;;;21.63;62.49;100129.14;111327;1206;98908;-62
2023/08/04 09:27:35;;;;;;;4.40;1.00;;;;;;;21.67;62.25;100138.30;111149;1224;138125;-62
2023/08/04 09:30:03;;;;;;;4.20;1.10;;;;;;;21.70;62.17;100139.13;111277;1208;99003;-62
2023/08/04 09:32:29;;;;;;;2.60;1.40;;;;;;;21.77;61.98;100144.88;111257;1208;99248;-62
2023/08/04 09:35:05;;;;;;;3.00;2.00;;;;;;;21.74;61.73;100143.48;111125;1203;140384;-62
2023/08/04 09:37:35;;;;;;;5.10;1.50;;;;;;;21.70;61.51;100142.29;111289;1205;98916;-61
2023/08/04 09:40:04;;;;;;;4.00;1.20;;;;;;;21.63;61.75;100149.08;111096;1209;138539;-62
2023/08/04 09:42:30;;;;;;;1.70;1.00;;;;;;;21.61;61.83;100146.72;111357;1215;99028;-62
2023/08/04 09:44:56;;;;;;;2.20;1.20;;;;;;;21.65;61.81;100144.17;111149;1203;139235;-62
2023/08/04 09:47:26;;;;;;;1.80;1.10;;;;;;;21.62;61.76;100143.23;111279;1203;98928;-62
2023/08/04 09:49:52;;;;;;;3.30;1.20;;;;;;;21.63;61.96;100147.52;111332;1207;99005;-62
2023/08/04 09:52:22;;;;;;;3.70;1.20;;;;;;;21.67;61.78;100140.17;111236;1206;139150;-62
2023/08/04 09:54:49;;;;;;;5.10;1.40;;;;;;;21.70;61.83;100141.71;111224;1216;99022;-62
2023/08/04 09:57:15;;;;;;;3.30;1.40;;;;;;;21.74;61.82;100149.20;111164;1206;138295;-62
2023/08/04 09:59:40;;;;;;;1.20;1.00;;;;;;;21.72;61.65;100156.03;111406;1204;99075;-62
2023/08/04 10:02:08;;;;;;;8.10;1.20;;;;;;;21.65;61.46;100161.48;111359;1209;97914;-63
2023/08/04 10:04:34;;;;;;;3.20;1.20;;;;;;;21.55;61.35;100166.13;111148;1209;138163;-63
2023/08/04 10:06:59;;;;;;;1.90;1.40;;;;;;;21.51;61.44;100165.36;111244;1209;99012;-63
2023/08/04 10:09:26;;;;;;;4.20;1.50;;;;;;;21.53;61.33;100171.89;111237;1209;139292;-62
2023/08/04 10:11:52;;;;;;;3.30;1.60;;;;;;;21.49;61.40;100175.27;111287;1209;104203;-63
2023/08/04 10:14:18;;;;;;;10.70;1.90;;;;;;;21.46;61.34;100184.80;111346;1203;98940;-63
2023/08/04 10:16:44;;;;;;;4.20;1.20;;;;;;;21.36;61.36;100191.14;111170;1209;138234;-62
2023/08/04 10:19:11;;;;;;;5.00;1.40;;;;;;;21.32;61.37;100188.78;111238;1208;99113;-62
2023/08/04 10:21:41;;;;;;;4.00;1.40;;;;;;;21.29;61.61;100191.15;111176;1207;138722;-61
2023/08/04 10:24:11;;;;;;;2.10;1.40;;;;;;;21.28;61.68;100189.20;111407;1217;98991;-61
2023/08/04 10:26:48;;;;;;;7.30;1.70;;;;;;;21.29;61.56;100187.48;111262;1206;99103;-62
2023/08/04 10:29:14;;;;;;;4.70;1.60;;;;;;;21.31;61.90;100184.91;111092;1203;140246;-62
2023/08/04 10:31:55;;;;;;;5.20;1.20;;;;;;;21.34;62.01;100178.48;111362;1208;98871;-61
2023/08/04 10:34:26;;;;;;;9.40;1.70;;;;;;;21.37;62.05;100177.44;111188;1203;138363;-62
2023/08/04 10:37:04;;;;;;;8.70;1.40;;;;;;;21.39;61.97;100182.11;111314;1208;99111;-62
2023/08/04 10:39:37;;;;;;;2.80;1.40;;;;;;;21.49;62.05;100186.45;111163;1208;138445;-62
2023/08/04 10:42:12;;;;;;;3.20;1.50;;;;;;;21.68;62.20;100187.52;111296;1208;99056;-62
2023/08/04 10:44:55;;;;;;;3.10;1.40;;;;;;;21.90;61.95;100185.71;111292;1207;98920;-62
2023/08/04 10:47:32;;;;;;;2.60;1.30;;;;;;;22.14;61.86;100179.36;111397;1208;104034;-62
2023/08/04 10:49:58;;;;;;;3.90;1.40;;;;;;;22.40;61.69;100174.45;111227;1209;98985;-62
2023/08/04 10:52:25;;;;;;;3.30;1.40;;;;;;;22.57;61.56;100174.49;111213;1203;138717;-62
2023/08/04 10:54:53;;;;;;;3.70;1.10;;;;;;;22.66;61.42;100174.69;111284;1206;99024;-62
2023/08/04 10:57:23;;;;;;;3.40;1.50;;;;;;;22.70;61.17;100175.38;111150;1209;138096;-62
2023/08/04 10:59:49;;;;;;;10.60;1.40;;;;;;;22.67;60.88;100174.73;111277;1209;113080;-62
2023/08/04 11:02:22;;;;;;;3.70;1.70;;;;;;;22.60;60.67;100176.58;111268;1206;98915;-63
2023/08/04 11:04:48;;;;;;;8.60;2.10;;;;;;;22.47;60.45;100177.93;111181;1209;138560;-62
2023/08/04 11:07:15;;;;;;;2.60;1.40;;;;;;;22.39;60.13;100187.06;111358;1209;98992;-62
2023/08/04 11:09:42;;;;;;;8.80;1.60;;;;;;;22.30;59.75;100188.02;111264;1208;138156;-62
2023/08/04 11:12:08;;;;;;;1.70;1.20;;;;;;;22.29;59.80;100194.77;111318;1208;99451;-62
2023/08/04 11:14:35;;;;;;;3.70;1.30;;;;;;;22.34;59.74;100194.29;111299;1208;99040;-62
2023/08/04 11:17:01;;;;;;;4.90;1.20;;;;;;;22.42;59.57;100194.48;111591;1206;139668;-62